createdAt,value
2018-01-30T00:02:03.500Z,101164.84
2018-01-30T00:04:32.273Z,101160.92
2018-01-30T00:07:01.025Z,101168.77
2018-01-30T00:09:29.578Z,101169.38
2018-01-30T00:11:58.110Z,101165.39
2018-01-30T00:14:26.556Z,101159.39
2018-01-30T00:16:55.406Z,101165.81
2018-01-30T00:19:24.512Z,101178.33
2018-01-30T00:21:52.968Z,101172.13
2018-01-30T00:24:21.450Z,101191.67
2018-01-30T00:26:49.905Z,101204.28
2018-01-30T00:29:18.397Z,101209.66
2018-01-30T00:31:47.211Z,101204.05
2018-01-30T00:34:15.756Z,101228.23
2018-01-30T00:36:44.247Z,101215.02
2018-01-30T00:39:12.682Z,101234.81
2018-01-30T00:41:41.558Z,101224.84
2018-01-30T00:44:10.105Z,101215.91
2018-01-30T00:46:38.540Z,101238.54
2018-01-30T00:49:07.577Z,101248.29
2018-01-30T00:51:36.035Z,101252.56
2018-01-30T00:54:04.478Z,101250.80
2018-01-30T00:56:33.120Z,101249.72
2018-01-30T00:59:01.565Z,101258.18
2018-01-30T01:01:30.401Z,101268.13
2018-01-30T01:03:58.974Z,101276.67
2018-01-30T01:06:27.668Z,101285.97
2018-01-30T01:08:56.198Z,101282.11
2018-01-30T01:11:25.048Z,101283.02
2018-01-30T01:13:53.514Z,101284.16
2018-01-30T01:16:22.268Z,101290.89
2018-01-30T01:18:51.194Z,101307.20
2018-01-30T01:21:19.653Z,101275.38
2018-01-30T01:23:48.081Z,101290.47
2018-01-30T01:26:17.231Z,101304.45
2018-01-30T01:28:46.245Z,101304.41
2018-01-30T01:31:15.894Z,101318.59
2018-01-30T01:33:44.748Z,101324.72
2018-01-30T01:36:13.243Z,101307.36
2018-01-30T01:38:41.675Z,101325.95
2018-01-30T01:41:10.751Z,101329.38
2018-01-30T01:43:39.211Z,101335.11
2018-01-30T01:46:07.647Z,101332.34
2018-01-30T01:48:36.103Z,101326.20
2018-01-30T01:51:06.107Z,101318.30
2018-01-30T01:53:34.636Z,101337.80
2018-01-30T01:56:03.158Z,101339.78
2018-01-30T01:58:31.628Z,101345.53
2018-01-30T02:01:00.102Z,101343.56
2018-01-30T02:03:28.540Z,101338.27
2018-01-30T02:05:58.608Z,101339.27
2018-01-30T02:08:27.063Z,101334.05
2018-01-30T02:10:55.544Z,101347.26
2018-01-30T02:13:23.988Z,101355.20
2018-01-30T02:15:52.829Z,101355.71
2018-01-30T02:18:21.283Z,101359.22
2018-01-30T02:20:51.133Z,101366.59
2018-01-30T02:23:19.850Z,101378.09
2018-01-30T02:25:48.785Z,101375.97
2018-01-30T02:28:17.250Z,101364.61
2018-01-30T02:30:45.757Z,101380.36
2018-01-30T02:33:14.220Z,101373.70
2018-01-30T02:35:43.097Z,101392.09
2018-01-30T02:38:11.543Z,101401.50
2018-01-30T02:40:40.088Z,101392.88
2018-01-30T02:43:08.528Z,101395.30
2018-01-30T02:45:37.370Z,101401.95
2018-01-30T02:48:07.161Z,101409.36
2018-01-30T02:50:35.607Z,101419.00
2018-01-30T02:53:04.437Z,101421.23
2018-01-30T02:55:32.903Z,101408.65
2018-01-30T02:58:01.339Z,101409.09
2018-01-30T03:00:29.848Z,101396.97
2018-01-30T03:02:59.356Z,101419.66
2018-01-30T03:05:27.802Z,101420.67
2018-01-30T03:07:56.360Z,101429.73
2018-01-30T03:10:24.849Z,101430.63
2018-01-30T03:12:53.667Z,101431.84
2018-01-30T03:15:22.513Z,101430.53
2018-01-30T03:17:51.667Z,101435.81
2018-01-30T03:20:20.767Z,101445.89
2018-01-30T03:22:49.612Z,101435.70
2018-01-30T03:25:18.069Z,101446.17
2018-01-30T03:27:46.660Z,101453.06
2018-01-30T03:30:16.540Z,101454.70
2018-01-30T03:32:44.980Z,101453.59
2018-01-30T03:35:13.445Z,101470.84
2018-01-30T03:37:41.881Z,101469.22
2018-01-30T03:40:10.716Z,101452.23
2018-01-30T03:42:39.296Z,101450.87
2018-01-30T03:45:08.125Z,101460.45
2018-01-30T03:47:37.071Z,101458.37
2018-01-30T03:50:05.531Z,101467.13
2018-01-30T03:52:33.994Z,101452.98
2018-01-30T03:55:03.081Z,101464.31
2018-01-30T03:57:32.026Z,101459.39
2018-01-30T04:00:00.729Z,101458.37
2018-01-30T04:02:29.285Z,101470.25
2018-01-30T04:04:57.774Z,101468.50
2018-01-30T04:07:26.244Z,101483.52
2018-01-30T04:09:54.792Z,101477.19
2018-01-30T04:12:24.315Z,101479.80
2018-01-30T04:14:52.765Z,101473.62
2018-01-30T04:17:21.681Z,101487.50
2018-01-30T04:19:50.126Z,101495.83
2018-01-30T04:22:25.504Z,101485.59
2018-01-30T04:24:57.690Z,101483.13
2018-01-30T04:27:27.636Z,101479.49
2018-01-30T04:29:56.442Z,101486.38
2018-01-30T04:32:24.879Z,101493.80
2018-01-30T04:34:53.372Z,101489.07
2018-01-30T04:37:21.818Z,101498.30
2018-01-30T04:39:53.405Z,101496.80
2018-01-30T04:42:21.858Z,101505.14
2018-01-30T04:44:50.308Z,101501.80
2018-01-30T04:47:18.754Z,101505.59
2018-01-30T04:49:47.196Z,101519.82
2018-01-30T04:52:16.700Z,101513.62
2018-01-30T04:54:45.724Z,101511.83
2018-01-30T04:57:14.177Z,101509.47
2018-01-30T04:59:42.688Z,101511.30
2018-01-30T05:02:11.986Z,101522.22
2018-01-30T05:04:40.462Z,101530.16
2018-01-30T05:07:09.093Z,101535.01
2018-01-30T05:09:37.541Z,101534.25
2018-01-30T05:12:05.985Z,101522.91
2018-01-30T05:14:34.493Z,101529.09
2018-01-30T05:17:03.008Z,101529.96
2018-01-30T05:19:31.465Z,101531.02
2018-01-30T05:22:01.152Z,101528.11
2018-01-30T05:24:29.597Z,101529.05
2018-01-30T05:26:58.545Z,101533.36
2018-01-30T05:29:38.232Z,101546.81
2018-01-30T05:32:07.177Z,101539.89
2018-01-30T05:34:36.865Z,101537.66
2018-01-30T05:37:05.320Z,101530.85
2018-01-30T05:39:34.254Z,101539.01
2018-01-30T05:42:02.694Z,101538.17
2018-01-30T05:44:31.529Z,101544.70
2018-01-30T05:47:04.322Z,101530.42
2018-01-30T05:49:32.888Z,101545.87
2018-01-30T05:52:01.524Z,101545.75
2018-01-30T05:54:30.634Z,101547.56
2018-01-30T05:56:59.585Z,101541.45
2018-01-30T05:59:28.556Z,101543.88
2018-01-30T06:01:57.050Z,101547.25
2018-01-30T06:04:25.846Z,101550.31
2018-01-30T06:06:54.292Z,101557.83
2018-01-30T06:09:22.762Z,101561.72
2018-01-30T06:11:51.209Z,101568.83
2018-01-30T06:14:19.645Z,101561.91
2018-01-30T06:16:48.380Z,101565.94
2018-01-30T06:19:17.539Z,101579.63
2018-01-30T06:21:45.995Z,101590.59
2018-01-30T06:24:15.312Z,101591.31
2018-01-30T06:26:43.758Z,101600.63
2018-01-30T06:29:12.821Z,101598.52
2018-01-30T06:31:41.370Z,101603.55
2018-01-30T06:34:10.517Z,101607.70
2018-01-30T06:36:39.458Z,101616.56
2018-01-30T06:39:08.354Z,101620.73
2018-01-30T06:41:36.828Z,101624.86
2018-01-30T06:44:05.323Z,101628.43
2018-01-30T06:46:34.683Z,101630.66
2018-01-30T06:49:03.156Z,101634.17
2018-01-30T06:51:32.017Z,101642.27
2018-01-30T06:54:00.465Z,101656.56
2018-01-30T06:56:30.449Z,101650.95
2018-01-30T06:58:59.415Z,101647.64
2018-01-30T07:01:28.164Z,101666.23
2018-01-30T07:03:56.617Z,101660.28
2018-01-30T07:06:25.069Z,101659.69
2018-01-30T07:08:53.909Z,101660.06
2018-01-30T07:11:22.383Z,101673.43
2018-01-30T07:13:56.377Z,101683.41
2018-01-30T07:16:25.327Z,101674.30
2018-01-30T07:18:54.686Z,101681.19
2018-01-30T07:21:23.281Z,101688.27
2018-01-30T07:23:51.734Z,101687.16
2018-01-30T07:26:22.286Z,101686.28
2018-01-30T07:28:52.158Z,101688.24
2018-01-30T07:31:21.099Z,101687.47
2018-01-30T07:33:49.572Z,101699.06
2018-01-30T07:36:18.021Z,101703.77
2018-01-30T07:38:46.949Z,101705.38
2018-01-30T07:41:15.657Z,101713.02
2018-01-30T07:43:44.469Z,101714.53
2018-01-30T07:46:13.028Z,101716.05
2018-01-30T07:48:41.498Z,101723.25
2018-01-30T07:51:10.790Z,101721.95
2018-01-30T07:53:40.264Z,101724.31
2018-01-30T07:56:09.293Z,101733.32
2018-01-30T07:58:38.568Z,101721.77
2018-01-30T08:01:07.009Z,101726.13
2018-01-30T08:03:35.453Z,101727.83
2018-01-30T08:06:03.901Z,101732.86
2018-01-30T08:08:32.410Z,101730.94
2018-01-30T08:11:00.846Z,101731.94
2018-01-30T08:13:30.872Z,101725.89
2018-01-30T08:16:15.383Z,101734.78
2018-01-30T08:18:49.582Z,101736.04
2018-01-30T08:21:18.021Z,101722.91
2018-01-30T08:23:46.953Z,101737.18
2018-01-30T08:26:15.441Z,101729.91
2018-01-30T08:28:45.128Z,101737.91
2018-01-30T08:31:13.653Z,101735.77
2018-01-30T08:33:42.113Z,101735.13
2018-01-30T08:36:10.594Z,101728.55
2018-01-30T08:38:39.747Z,101736.02
2018-01-30T08:41:08.673Z,101743.01
2018-01-30T08:43:37.099Z,101744.17
2018-01-30T08:46:07.259Z,101740.28
2018-01-30T08:48:35.613Z,101745.35
2018-01-30T08:51:04.379Z,101753.58
2018-01-30T08:53:35.291Z,101757.48
2018-01-30T08:56:03.710Z,101762.58
2018-01-30T08:58:33.654Z,101754.14
2018-01-30T09:01:02.423Z,101749.59
2018-01-30T09:03:31.191Z,101752.75
2018-01-30T09:05:59.567Z,101764.38
2018-01-30T09:08:28.027Z,101767.69
2018-01-30T09:10:56.408Z,101759.69
2018-01-30T09:13:24.788Z,101770.84
2018-01-30T09:15:53.132Z,101779.30
2018-01-30T09:18:21.491Z,101784.95
2018-01-30T09:20:50.336Z,101771.52
2018-01-30T09:23:18.716Z,101785.80
2018-01-30T09:25:47.095Z,101782.56
2018-01-30T09:28:15.446Z,101792.84
2018-01-30T09:30:43.809Z,101782.97
2018-01-30T09:33:12.181Z,101788.52
2018-01-30T09:35:41.016Z,101798.75
2018-01-30T09:38:09.399Z,101792.53
2018-01-30T09:40:37.772Z,101803.66
2018-01-30T09:43:06.137Z,101804.74
2018-01-30T09:45:34.521Z,101798.27
2018-01-30T09:48:02.931Z,101806.47
2018-01-30T09:50:31.283Z,101811.00
2018-01-30T09:52:59.706Z,101821.45
2018-01-30T09:55:28.129Z,101823.34
2018-01-30T09:57:56.501Z,101812.00
2018-01-30T10:00:24.844Z,101824.64
2018-01-30T10:02:53.288Z,101820.42
2018-01-30T10:05:21.636Z,101821.80
2018-01-30T10:07:50.049Z,101818.33
2018-01-30T10:10:18.420Z,101812.97
2018-01-30T10:12:46.772Z,101817.30
2018-01-30T10:15:15.141Z,101809.34
2018-01-30T10:17:43.588Z,101809.78
2018-01-30T10:20:11.966Z,101815.73
2018-01-30T10:22:40.421Z,101815.69
2018-01-30T10:25:08.775Z,101830.07
2018-01-30T10:27:37.133Z,101826.53
2018-01-30T10:30:05.939Z,101822.61
2018-01-30T10:32:34.355Z,101826.84
2018-01-30T10:35:02.692Z,101823.18
2018-01-30T10:37:31.049Z,101823.55
2018-01-30T10:39:59.787Z,101824.75
2018-01-30T10:42:28.164Z,101817.83
2018-01-30T10:44:56.519Z,101813.37
2018-01-30T10:47:24.890Z,101817.15
2018-01-30T10:49:53.299Z,101813.24
2018-01-30T10:52:21.653Z,101807.84
2018-01-30T10:54:50.070Z,101806.95
2018-01-30T10:57:18.553Z,101812.34
2018-01-30T10:59:46.916Z,101816.27
2018-01-30T11:02:15.286Z,101823.14
2018-01-30T11:04:43.655Z,101822.17
2018-01-30T11:07:12.004Z,101829.22
2018-01-30T11:09:40.431Z,101828.24
2018-01-30T11:12:08.775Z,101830.78
2018-01-30T11:14:37.202Z,101837.47
2018-01-30T11:17:05.610Z,101839.90
2018-01-30T11:19:34.056Z,101835.81
2018-01-30T11:22:02.750Z,101848.38
2018-01-30T11:24:31.140Z,101844.91
2018-01-30T11:26:59.506Z,101866.97
2018-01-30T11:29:27.870Z,101862.14
2018-01-30T11:31:56.248Z,101863.57
2018-01-30T11:34:24.657Z,101851.61
2018-01-30T11:36:53.112Z,101856.73
2018-01-30T11:39:21.456Z,101851.41
2018-01-30T11:41:49.871Z,101844.64
2018-01-30T11:44:18.222Z,101847.73
2018-01-30T11:46:46.603Z,101841.08
2018-01-30T11:49:14.959Z,101852.53
2018-01-30T11:51:43.700Z,101843.92
2018-01-30T11:54:12.077Z,101859.56
2018-01-30T11:56:40.440Z,101851.94
2018-01-30T11:59:08.883Z,101857.39
2018-01-30T12:01:37.742Z,101872.55
2018-01-30T12:04:06.200Z,101873.84
2018-01-30T12:06:34.548Z,101861.95
2018-01-30T12:09:02.959Z,101840.65
2018-01-30T12:11:31.357Z,101830.47
2018-01-30T12:13:59.721Z,101833.59
2018-01-30T12:16:28.092Z,101819.75
2018-01-30T12:18:56.476Z,101817.27
2018-01-30T12:21:24.849Z,101826.53
2018-01-30T12:23:53.227Z,101814.09
2018-01-30T12:26:21.592Z,101818.91
2018-01-30T12:28:49.935Z,101814.03
2018-01-30T12:31:18.694Z,101814.44
2018-01-30T12:33:47.070Z,101819.64
2018-01-30T12:36:15.468Z,101806.25
2018-01-30T12:38:43.814Z,101803.94
2018-01-30T12:41:12.236Z,101806.12
2018-01-30T12:43:41.012Z,101806.06
2018-01-30T12:46:09.511Z,101806.33
2018-01-30T12:48:38.356Z,101794.89
2018-01-30T12:51:06.712Z,101801.67
2018-01-30T12:53:35.111Z,101788.39
2018-01-30T12:56:03.497Z,101797.11
2018-01-30T12:58:31.879Z,101806.48
2018-01-30T13:01:00.244Z,101799.92
2018-01-30T13:03:28.628Z,101796.46
2018-01-30T13:05:57.000Z,101794.66
2018-01-30T13:08:25.348Z,101796.43
2018-01-30T13:10:53.780Z,101790.13
2018-01-30T13:13:22.127Z,101788.88
2018-01-30T13:15:50.595Z,101794.67
2018-01-30T13:18:18.965Z,101797.41
2018-01-30T13:20:47.320Z,101796.03
2018-01-30T13:23:16.093Z,101794.35
2018-01-30T13:25:44.454Z,101796.98
2018-01-30T13:28:12.867Z,101798.53
2018-01-30T13:30:41.602Z,101784.84
2018-01-30T13:33:09.993Z,101791.81
2018-01-30T13:35:38.359Z,101787.83
2018-01-30T13:38:06.707Z,101794.80
2018-01-30T13:40:35.067Z,101792.00
2018-01-30T13:43:03.917Z,101791.81
2018-01-30T13:45:32.328Z,101797.48
2018-01-30T13:48:00.777Z,101796.40
2018-01-30T13:50:29.162Z,101793.24
2018-01-30T13:52:57.524Z,101794.89
2018-01-30T13:55:25.881Z,101798.20
2018-01-30T13:57:54.285Z,101798.84
2018-01-30T14:00:22.662Z,101803.25
2018-01-30T14:02:51.011Z,101813.41
2018-01-30T14:05:19.431Z,101812.03
2018-01-30T14:07:47.792Z,101815.76
2018-01-30T14:10:16.156Z,101816.66
2018-01-30T14:12:44.510Z,101827.17
2018-01-30T14:15:13.358Z,101816.37
2018-01-30T14:17:41.712Z,101808.36
2018-01-30T14:20:10.056Z,101812.30
2018-01-30T14:22:38.896Z,101812.03
2018-01-30T14:25:07.274Z,101805.71
2018-01-30T14:27:35.756Z,101801.58
2018-01-30T14:30:04.109Z,101808.95
2018-01-30T14:32:32.516Z,101813.94
2018-01-30T14:35:00.893Z,101820.28
2018-01-30T14:37:29.245Z,101815.40
2018-01-30T14:39:57.649Z,101812.25
2018-01-30T14:42:26.028Z,101816.29
2018-01-30T14:44:54.376Z,101822.64
2018-01-30T14:47:22.740Z,101812.73
2018-01-30T14:49:51.116Z,101827.97
2018-01-30T14:52:20.030Z,101835.50
2018-01-30T14:54:48.379Z,101832.80
2018-01-30T14:57:17.125Z,101839.78
2018-01-30T14:59:45.519Z,101842.09
2018-01-30T15:02:13.892Z,101830.11
2018-01-30T15:04:42.254Z,101823.70
2018-01-30T15:07:10.711Z,101816.75
2018-01-30T15:09:39.069Z,101810.14
2018-01-30T15:12:07.903Z,101815.95
2018-01-30T15:14:36.360Z,101818.09
2018-01-30T15:17:04.704Z,101808.50
2018-01-30T15:19:33.456Z,101817.38
2018-01-30T15:22:01.807Z,101806.71
2018-01-30T15:24:30.172Z,101803.97
2018-01-30T15:26:58.529Z,101805.65
2018-01-30T15:29:26.976Z,101803.81
2018-01-30T15:31:55.349Z,101802.47
2018-01-30T15:34:23.696Z,101800.61
2018-01-30T15:36:52.047Z,101805.91
2018-01-30T15:39:20.895Z,101803.08
2018-01-30T15:41:49.248Z,101805.48
2018-01-30T15:44:17.593Z,101803.84
2018-01-30T15:46:46.340Z,101801.70
2018-01-30T15:49:14.684Z,101805.02
2018-01-30T15:51:43.057Z,101804.28
2018-01-30T15:54:11.426Z,101805.05
2018-01-30T15:56:40.316Z,101803.69
2018-01-30T15:59:09.151Z,101795.83
2018-01-30T16:01:37.525Z,101803.17
2018-01-30T16:04:05.909Z,101815.09
2018-01-30T16:06:34.289Z,101815.98
2018-01-30T16:09:02.655Z,101812.23
2018-01-30T16:11:31.037Z,101807.97
2018-01-30T16:13:59.436Z,101790.70
2018-01-30T16:16:27.806Z,101796.58
2018-01-30T16:18:56.151Z,101792.39
2018-01-30T16:21:24.505Z,101809.69
2018-01-30T16:23:53.340Z,101816.54
2018-01-30T16:26:21.724Z,101808.18
2018-01-30T16:28:50.092Z,101795.63
2018-01-30T16:31:18.477Z,101785.69
2018-01-30T16:33:46.835Z,101781.23
2018-01-30T16:36:15.203Z,101789.48
2018-01-30T16:38:43.555Z,101785.43
2018-01-30T16:41:11.896Z,101783.84
2018-01-30T16:43:40.258Z,101772.45
2018-01-30T16:46:08.664Z,101776.86
2018-01-30T16:48:37.017Z,101777.16
2018-01-30T16:51:05.372Z,101769.63
2018-01-30T16:53:33.789Z,101769.66
2018-01-30T16:56:02.295Z,101763.89
2018-01-30T16:58:30.634Z,101770.14
2018-01-30T17:00:59.028Z,101775.33
2018-01-30T17:03:27.398Z,101780.59
2018-01-30T17:05:55.747Z,101770.02
2018-01-30T17:08:24.095Z,101770.22
2018-01-30T17:10:52.550Z,101764.25
2018-01-30T17:13:20.917Z,101760.52
2018-01-30T17:15:49.304Z,101758.23
2018-01-30T17:18:17.660Z,101754.73
2018-01-30T17:20:46.029Z,101761.27
2018-01-30T17:23:14.376Z,101755.44
2018-01-30T17:25:43.136Z,101760.36
2018-01-30T17:28:11.475Z,101768.62
2018-01-30T17:30:39.848Z,101762.72
2018-01-30T17:33:08.227Z,101757.17
2018-01-30T17:35:36.660Z,101755.17
2018-01-30T17:38:05.017Z,101738.51
2018-01-30T17:40:33.392Z,101741.20
2018-01-30T17:43:01.772Z,101743.98
2018-01-30T17:45:30.135Z,101743.52
2018-01-30T17:47:58.612Z,101732.70
2018-01-30T17:50:26.971Z,101730.40
2018-01-30T17:52:55.721Z,101734.32
2018-01-30T17:55:24.076Z,101731.73
2018-01-30T17:57:52.464Z,101735.16
2018-01-30T18:00:20.828Z,101731.13
2018-01-30T18:02:49.214Z,101739.43
2018-01-30T18:05:17.620Z,101735.20
2018-01-30T18:07:46.082Z,101740.17
2018-01-30T18:10:14.442Z,101744.06
2018-01-30T18:12:42.810Z,101732.27
2018-01-30T18:15:11.289Z,101731.45
2018-01-30T18:17:39.659Z,101730.80
2018-01-30T18:20:08.080Z,101734.46
2018-01-30T18:22:36.462Z,101736.11
2018-01-30T18:25:04.836Z,101734.20
2018-01-30T18:27:33.319Z,101732.13
2018-01-30T18:30:01.678Z,101734.41
2018-01-30T18:32:30.029Z,101738.59
2018-01-30T18:34:58.383Z,101732.11
2018-01-30T18:37:27.128Z,101728.39
2018-01-30T18:39:55.499Z,101731.84
2018-01-30T18:42:23.852Z,101727.02
2018-01-30T18:44:52.229Z,101730.00
2018-01-30T18:47:20.646Z,101730.63
2018-01-30T18:49:49.011Z,101729.95
2018-01-30T18:52:17.364Z,101727.61
2018-01-30T18:54:45.758Z,101731.00
2018-01-30T18:57:14.139Z,101738.05
2018-01-30T18:59:42.542Z,101732.97
2018-01-30T19:02:11.352Z,101737.38
2018-01-30T19:04:39.700Z,101731.35
2018-01-30T19:07:08.101Z,101745.19
2018-01-30T19:09:36.473Z,101738.17
2018-01-30T19:12:04.969Z,101744.41
2018-01-30T19:14:33.323Z,101742.03
2018-01-30T19:17:01.710Z,101746.19
2018-01-30T19:19:30.088Z,101747.38
2018-01-30T19:21:58.442Z,101746.61
2018-01-30T19:24:26.795Z,101746.00
2018-01-30T19:26:55.650Z,101746.71
2018-01-30T19:29:24.007Z,101750.55
2018-01-30T19:31:52.369Z,101752.14
2018-01-30T19:34:20.719Z,101752.89
2018-01-30T19:36:49.459Z,101748.87
2018-01-30T19:39:17.856Z,101746.88
2018-01-30T19:41:46.232Z,101749.41
2018-01-30T19:44:14.584Z,101754.70
2018-01-30T19:46:42.945Z,101755.17
2018-01-30T19:49:11.303Z,101753.83
2018-01-30T19:51:40.138Z,101751.54
2018-01-30T19:54:08.498Z,101752.25
2018-01-30T19:56:36.892Z,101744.91
2018-01-30T19:59:05.228Z,101745.06
2018-01-30T20:01:34.138Z,101744.73
2018-01-30T20:04:02.483Z,101743.19
2018-01-30T20:06:31.247Z,101736.43
2018-01-30T20:08:59.605Z,101725.03
2018-01-30T20:11:29.848Z,101719.19
2018-01-30T20:13:58.316Z,101715.09
2018-01-30T20:16:26.668Z,101709.17
2018-01-30T20:18:55.078Z,101708.80
2018-01-30T20:21:23.450Z,101702.55
2018-01-30T20:23:51.816Z,101695.54
2018-01-30T20:26:20.163Z,101698.33
2018-01-30T20:28:48.575Z,101697.45
2018-01-30T20:31:16.940Z,101702.41
2018-01-30T20:33:45.336Z,101698.73
2018-01-30T20:36:13.725Z,101686.80
2018-01-30T20:38:42.112Z,101683.91
2018-01-30T20:41:10.555Z,101675.83
2018-01-30T20:43:38.963Z,101677.99
2018-01-30T20:46:07.428Z,101676.12
2018-01-30T20:48:35.786Z,101661.65
2018-01-30T20:51:04.173Z,101661.41
2018-01-30T20:53:32.575Z,101660.19
2018-01-30T20:56:01.283Z,101661.02
2018-01-30T20:58:29.647Z,101657.89
2018-01-30T21:00:58.458Z,101652.46
2018-01-30T21:03:28.850Z,101656.85
2018-01-30T21:05:57.219Z,101649.66
2018-01-30T21:08:27.135Z,101650.87
2018-01-30T21:10:55.699Z,101651.14
2018-01-30T21:13:24.099Z,101653.17
2018-01-30T21:15:52.903Z,101646.55
2018-01-30T21:18:21.524Z,101642.92
2018-01-30T21:20:50.390Z,101645.66
2018-01-30T21:23:19.088Z,101646.91
2018-01-30T21:25:49.090Z,101641.00
2018-01-30T21:28:19.546Z,101634.05
2018-01-30T21:30:48.193Z,101630.50
2018-01-30T21:33:16.857Z,101625.81
2018-01-30T21:35:45.799Z,101628.16
2018-01-30T21:38:14.370Z,101631.48
2018-01-30T21:40:44.336Z,101634.85
2018-01-30T21:43:13.734Z,101633.53
2018-01-30T21:45:42.978Z,101632.14
2018-01-30T21:48:11.343Z,101628.59
2018-01-30T21:50:39.729Z,101628.64
2018-01-30T21:53:08.756Z,101622.55
2018-01-30T21:55:37.937Z,101619.03
2018-01-30T21:58:06.567Z,101611.31
2018-01-30T22:00:35.164Z,101603.64
2018-01-30T22:03:03.620Z,101602.13
2018-01-30T22:05:34.022Z,101599.37
2018-01-30T22:08:06.244Z,101596.38
2018-01-30T22:10:35.074Z,101607.04
2018-01-30T22:13:03.566Z,101601.80
2018-01-30T22:15:32.044Z,101602.78
2018-01-30T22:18:00.711Z,101600.08
2018-01-30T22:20:29.508Z,101597.73
2018-01-30T22:22:58.401Z,101589.19
2018-01-30T22:25:27.310Z,101587.64
2018-01-30T22:27:56.057Z,101588.58
2018-01-30T22:30:24.720Z,101591.30
2018-01-30T22:32:53.705Z,101588.33
2018-01-30T22:35:23.091Z,101583.25
2018-01-30T22:37:52.321Z,101580.67
2018-01-30T22:40:20.807Z,101580.56
2018-01-30T22:42:50.693Z,101579.88
2018-01-30T22:45:19.204Z,101577.44
